Time;durP1;ratioP1;P1;durP2;ratioP2;P2;SDS_P1;SDS_P2;PMS_P1;PMS_P2;Temp;Humidity;BMP_temperature;BMP_pressure;BME280_temperature;BME280_humidity;BME280_pressure;Samples;Min_cycle;Max_cycle;Signal;HPM_P1;HPM_P2
2020/12/25 00:08:25;;;;;;;9.97;7.33;;;;;;;3.01;88.07;97627.47;489817;1147;104509;-43
2020/12/25 00:18:30;;;;;;;10.00;6.80;;;;;;;2.94;87.76;97642.36;489850;1146;104570;-40
2020/12/25 00:28:34;;;;;;;9.83;6.43;;;;;;;2.87;88.46;97659.06;489674;1148;104886;-42
2020/12/25 00:38:39;;;;;;;7.10;5.13;;;;;;;2.80;87.91;97682.55;489766;1148;104527;-42
2020/12/25 00:48:45;;;;;;;6.63;4.77;;;;;;;2.79;88.08;97694.00;489787;1148;104533;-41
2020/12/25 00:58:50;;;;;;;6.50;5.10;;;;;;;2.85;88.06;97713.30;489851;1148;104482;-42
2020/12/25 01:08:55;;;;;;;5.35;4.35;;;;;;;2.81;87.99;97731.14;489810;1148;104541;-41
2020/12/25 01:19:00;;;;;;;9.93;5.43;;;;;;;2.77;87.69;97735.97;489727;1148;104487;-40
2020/12/25 01:29:05;;;;;;;5.27;4.70;;;;;;;2.79;87.81;97761.88;489776;1147;104460;-41
2020/12/25 01:39:10;;;;;;;7.30;4.80;;;;;;;2.76;87.61;97764.89;489819;1148;104453;-41
2020/12/25 01:49:15;;;;;;;5.07;4.43;;;;;;;2.75;87.65;97769.30;489749;1148;104917;-41
2020/12/25 01:59:20;;;;;;;4.17;3.77;;;;;;;2.77;87.44;97795.20;489814;1148;104497;-41
2020/12/25 02:09:24;;;;;;;9.67;5.40;;;;;;;2.78;87.10;97802.03;489956;1148;104530;-41
2020/12/25 02:19:30;;;;;;;6.70;4.83;;;;;;;2.72;87.37;97816.70;489623;1148;104506;-41
2020/12/25 02:29:37;;;;;;;4.40;3.77;;;;;;;2.71;87.30;97825.53;489731;1148;104534;-41
2020/12/25 02:39:42;;;;;;;5.30;4.25;;;;;;;2.68;87.00;97818.11;489896;1148;104506;-42
2020/12/25 03:00:30;;;;;;;4.53;3.40;;;;;;;2.69;87.16;97850.23;489736;1146;104928;-43
2020/12/25 03:10:35;;;;;;;5.07;3.60;;;;;;;2.70;87.22;97857.06;489644;1148;104577;-41
2020/12/25 03:20:40;;;;;;;4.67;3.60;;;;;;;2.68;87.56;97869.50;489819;1148;104543;-42
2020/12/25 03:30:44;;;;;;;5.10;3.55;;;;;;;2.69;86.94;97881.55;489906;1148;104539;-41
2020/12/25 03:51:08;;;;;;;5.92;3.80;;;;;;;2.52;87.06;97883.70;489792;1147;104518;-42
2020/12/25 04:01:14;;;;;;;4.30;3.50;;;;;;;2.45;87.04;97881.09;490508;1147;105572;-41
2020/12/25 04:11:19;;;;;;;5.33;3.27;;;;;;;2.37;86.98;97891.70;490587;1147;104454;-42
2020/12/25 04:31:44;;;;;;;5.35;4.15;;;;;;;2.10;87.05;97895.17;490718;1147;104937;-40
2020/12/25 04:41:49;;;;;;;4.95;3.45;;;;;;;1.92;87.25;97905.33;490214;1147;104518;-43
2020/12/25 04:51:53;;;;;;;4.60;3.55;;;;;;;1.92;86.95;97902.73;490307;1147;104517;-41
2020/12/25 05:02:01;;;;;;;5.27;3.57;;;;;;;2.00;87.36;97912.98;490696;1147;105015;-40
2020/12/25 05:12:06;;;;;;;6.87;4.17;;;;;;;2.08;87.18;97928.47;490629;1147;104509;-42
2020/12/25 05:22:11;;;;;;;7.60;5.97;;;;;;;2.20;87.26;97926.94;490639;1147;104854;-42
2020/12/25 05:32:18;;;;;;;7.27;4.80;;;;;;;2.30;87.30;97940.42;490484;1147;104531;-42
2020/12/25 05:42:22;;;;;;;7.97;5.30;;;;;;;2.41;87.44;97952.13;490726;1147;104543;-41
2020/12/25 05:52:27;;;;;;;11.00;6.80;;;;;;;2.38;87.26;97966.37;490544;1147;104524;-43
2020/12/25 06:02:34;;;;;;;14.07;6.60;;;;;;;2.44;87.58;97985.66;490771;1147;104552;-41
2020/12/25 06:12:42;;;;;;;6.00;5.40;;;;;;;2.51;87.40;97990.90;490600;1147;104561;-42
2020/12/25 06:22:47;;;;;;;9.07;6.63;;;;;;;2.57;87.28;97998.75;490523;1147;104443;-41
2020/12/25 06:32:52;;;;;;;11.35;6.80;;;;;;;2.64;87.51;98009.24;490766;1147;104636;-42
2020/12/25 06:42:57;;;;;;;11.00;5.85;;;;;;;2.71;87.41;98020.51;490665;1147;104512;-43
2020/12/25 06:53:02;;;;;;;8.80;6.10;;;;;;;2.67;87.71;98033.14;490314;1147;104943;-42
2020/12/25 07:03:12;;;;;;;11.30;6.40;;;;;;;2.66;87.70;98049.00;490210;1147;104537;-42
2020/12/25 07:13:22;;;;;;;6.87;5.27;;;;;;;2.73;87.71;98065.50;490869;1147;104780;-42
2020/12/25 07:23:26;;;;;;;7.17;6.40;;;;;;;2.83;88.06;98076.38;490607;1147;104531;-40
2020/12/25 07:33:31;;;;;;;12.70;9.70;;;;;;;2.90;87.46;98090.30;490598;1147;104508;-40
2020/12/25 07:43:35;;;;;;;31.30;17.27;;;;;;;2.93;87.56;98102.96;490553;1147;104821;-41
2020/12/25 07:53:49;;;;;;;23.00;13.60;;;;;;;2.90;87.54;98105.16;490821;1147;104503;-40
2020/12/25 08:03:54;;;;;;;17.33;9.17;;;;;;;2.97;87.65;98098.95;490369;1146;104844;-40
2020/12/25 08:14:00;;;;;;;28.90;19.63;;;;;;;3.05;87.77;98108.42;490377;1147;105014;-41
2020/12/25 08:24:05;;;;;;;13.10;8.33;;;;;;;3.10;87.65;98113.09;490785;1147;104549;-40
2020/12/25 08:34:15;;;;;;;14.30;9.75;;;;;;;3.07;88.31;98130.73;490653;1147;104470;-41
2020/12/25 08:44:19;;;;;;;;;;;;;;;3.19;87.92;98140.65;490887;1147;104826;-40
2020/12/25 08:54:26;;;;;;;9.60;6.60;;;;;;;3.19;88.05;98167.58;491144;1147;104567;-39
2020/12/25 09:04:31;;;;;;;13.43;8.10;;;;;;;3.05;88.15;98168.50;491353;1146;104569;-42
2020/12/25 09:14:36;;;;;;;21.27;12.07;;;;;;;3.10;88.14;98163.53;490961;1146;104559;-42
2020/12/25 09:24:41;;;;;;;11.53;7.50;;;;;;;3.00;88.40;98189.98;490913;1147;104522;-42
2020/12/25 09:34:45;;;;;;;10.13;5.57;;;;;;;2.93;88.43;98207.42;490402;1147;104562;-41
2020/12/25 09:44:50;;;;;;;7.70;5.43;;;;;;;2.94;88.29;98201.20;490933;1147;104533;-40
2020/12/25 09:54:55;;;;;;;9.80;5.63;;;;;;;2.95;88.09;98194.98;490539;1148;104588;-40
2020/12/25 10:05:00;;;;;;;11.85;6.35;;;;;;;2.92;88.20;98202.39;491036;1147;104509;-40
2020/12/25 10:15:05;;;;;;;7.55;5.60;;;;;;;2.97;88.10;98198.20;490601;1147;105017;-40
2020/12/25 10:25:10;;;;;;;11.10;7.37;;;;;;;3.31;88.30;98200.02;490551;1147;104904;-39
2020/12/25 10:35:18;;;;;;;7.37;4.53;;;;;;;3.26;87.79;98218.05;491085;1147;104546;-42
2020/12/25 10:45:23;;;;;;;13.07;8.03;;;;;;;3.02;87.72;98208.88;490436;1147;104826;-40
2020/12/25 10:55:27;;;;;;;9.97;5.93;;;;;;;3.00;87.60;98223.93;491200;1147;104518;-40
2020/12/25 11:05:32;;;;;;;12.40;5.60;;;;;;;2.92;87.04;98213.64;490639;1147;104519;-45
2020/12/25 11:15:39;;;;;;;11.63;4.83;;;;;;;2.98;86.53;98217.28;490527;1147;104825;-40
2020/12/25 11:25:44;;;;;;;11.00;5.10;;;;;;;3.02;85.28;98229.77;491107;1147;104524;-40
2020/12/25 11:35:49;;;;;;;13.67;7.60;;;;;;;2.88;85.44;98229.89;490467;1147;104585;-41
2020/12/25 11:45:54;;;;;;;10.73;5.83;;;;;;;2.85;85.16;98225.05;490614;1147;104787;-40
2020/12/25 11:55:58;;;;;;;8.27;5.33;;;;;;;2.80;84.93;98238.64;490323;1147;104823;-40
2020/12/25 12:06:03;;;;;;;15.47;5.77;;;;;;;2.82;85.25;98247.09;490559;1147;104510;-41
2020/12/25 12:16:12;;;;;;;18.47;9.10;;;;;;;2.80;84.47;98248.28;490623;1147;104849;-42
2020/12/25 12:26:17;;;;;;;27.30;10.47;;;;;;;2.66;83.42;98261.25;490500;1147;105522;-43
2020/12/25 12:36:22;;;;;;;14.00;6.93;;;;;;;2.58;84.12;98270.99;490754;1146;104863;-44
2020/12/25 12:46:26;;;;;;;17.23;8.33;;;;;;;2.57;83.66;98282.42;490728;1147;104524;-41
2020/12/25 12:56:30;;;;;;;13.70;7.13;;;;;;;2.46;84.14;98292.38;490901;1147;104519;-41
2020/12/25 13:06:34;;;;;;;16.17;7.37;;;;;;;2.54;83.80;98295.86;490675;1147;104489;-40
2020/12/25 13:16:39;;;;;;;15.10;6.87;;;;;;;2.51;84.12;98296.23;490628;1147;104969;-48
2020/12/25 13:26:44;;;;;;;21.65;12.25;;;;;;;2.44;83.97;98307.42;490362;1147;104518;-40
2020/12/25 13:36:49;;;;;;;15.65;9.20;;;;;;;2.38;83.55;98328.23;491109;1147;104452;-43
2020/12/25 13:46:54;;;;;;;23.13;9.40;;;;;;;2.24;83.65;98329.88;490692;1147;104521;-40
2020/12/25 13:56:59;;;;;;;19.20;9.40;;;;;;;2.21;83.88;98332.86;490930;1147;104509;-40
2020/12/25 14:07:04;;;;;;;39.03;16.87;;;;;;;2.22;83.78;98351.92;490394;1147;104566;-41
2020/12/25 14:17:08;;;;;;;41.65;16.00;;;;;;;2.18;84.04;98364.53;490405;1146;104464;-42
2020/12/25 14:27:15;;;;;;;29.00;14.57;;;;;;;2.14;83.99;98369.30;490425;1147;104444;-40
2020/12/25 14:37:20;;;;;;;29.80;14.17;;;;;;;2.14;84.30;98387.56;490875;1147;104934;-41
2020/12/25 14:47:24;;;;;;;21.87;10.33;;;;;;;2.09;84.02;98389.88;490492;1147;104857;-40
2020/12/25 14:57:29;;;;;;;23.57;12.77;;;;;;;2.09;84.16;98402.92;489645;1147;104816;-42
2020/12/25 15:07:34;;;;;;;63.00;27.85;;;;;;;2.04;84.50;98409.68;489743;1148;104863;-41
2020/12/25 15:17:38;;;;;;;26.95;13.00;;;;;;;2.04;84.06;98430.54;489723;1148;104560;-42
2020/12/25 15:27:43;;;;;;;31.10;15.03;;;;;;;2.00;84.45;98426.68;489954;1148;104485;-42
2020/12/25 15:37:48;;;;;;;20.27;10.17;;;;;;;1.94;84.71;98423.00;489673;1148;105109;-42
2020/12/25 15:47:52;;;;;;;30.60;13.57;;;;;;;1.93;84.70;98441.43;489857;1147;104524;-40
2020/12/25 15:57:57;;;;;;;28.83;13.93;;;;;;;1.77;84.66;98440.59;490658;1147;104445;-42
2020/12/25 16:08:02;;;;;;;31.70;15.23;;;;;;;1.72;84.56;98437.72;490442;1147;104528;-42
2020/12/25 16:18:07;;;;;;;19.97;10.87;;;;;;;1.66;84.51;98459.29;490543;1147;104529;-41
2020/12/25 16:28:11;;;;;;;21.63;10.53;;;;;;;1.61;84.29;98465.99;490495;1147;104819;-42
2020/12/25 16:38:16;;;;;;;24.05;10.90;;;;;;;1.56;84.17;98463.92;490712;1147;104885;-40
2020/12/25 16:48:21;;;;;;;32.50;11.93;;;;;;;1.61;84.27;98465.99;490476;1147;104572;-41
2020/12/25 16:58:26;;;;;;;37.37;15.17;;;;;;;1.60;84.23;98469.59;490465;1147;104506;-40
2020/12/25 17:08:31;;;;;;;20.00;10.03;;;;;;;1.52;84.13;98484.31;490650;1147;104556;-42
2020/12/25 17:18:35;;;;;;;19.57;8.23;;;;;;;1.48;83.78;98483.05;490464;1147;104559;-41
2020/12/25 17:28:39;;;;;;;16.60;9.35;;;;;;;1.45;83.80;98478.19;490753;1146;104538;-41
2020/12/25 17:49:32;;;;;;;36.35;20.50;;;;;;;1.49;84.13;98502.09;490617;1147;104518;-45
2020/12/25 17:59:36;;;;;;;35.43;18.23;;;;;;;1.48;84.44;98518.72;490319;1147;104543;-42
2020/12/25 18:30:19;;;;;;;19.90;9.73;;;;;;;1.43;84.23;98536.67;490454;1147;104823;-42
2020/12/25 18:40:23;;;;;;;24.90;12.77;;;;;;;1.37;84.44;98526.92;490179;1146;104551;-42
2020/12/25 18:50:28;;;;;;;24.10;12.50;;;;;;;1.32;84.37;98537.06;490491;1147;104517;-42
2020/12/25 19:00:33;;;;;;;11.03;6.87;;;;;;;1.34;83.95;98537.69;490338;1147;104541;-42
2020/12/25 19:10:39;;;;;;;19.20;11.70;;;;;;;1.38;83.90;98549.38;490602;1147;104569;-44
2020/12/25 19:20:43;;;;;;;13.10;7.55;;;;;;;1.33;83.94;98552.52;490492;1147;104507;-42
2020/12/25 19:41:07;;;;;;;11.05;7.60;;;;;;;1.26;83.48;98562.01;490605;1147;104506;-40
2020/12/25 19:51:13;;;;;;;13.90;8.20;;;;;;;1.22;83.53;98571.96;490651;1147;104507;-41
2020/12/25 20:01:24;;;;;;;19.63;9.60;;;;;;;1.17;83.71;98579.45;490530;1147;104536;-41
2020/12/25 20:11:28;;;;;;;13.03;6.70;;;;;;;1.14;83.62;98586.80;490404;1147;104905;-43
2020/12/25 20:21:33;;;;;;;21.23;9.63;;;;;;;1.08;83.29;98590.09;490812;1147;104445;-43
2020/12/25 20:31:39;;;;;;;12.37;6.30;;;;;;;1.07;83.71;98598.89;490798;1147;104460;-42
2020/12/25 20:41:44;;;;;;;11.23;7.17;;;;;;;0.99;83.46;98601.53;490757;1147;104518;-41
2020/12/25 21:02:10;;;;;;;8.97;5.60;;;;;;;1.00;83.46;98601.36;491072;1147;104475;-41
2020/12/25 21:12:15;;;;;;;15.40;8.67;;;;;;;0.93;83.55;98613.41;490804;1146;104529;-41
2020/12/25 21:22:20;;;;;;;9.80;4.70;;;;;;;0.92;83.35;98628.22;491175;1147;104531;-42
2020/12/25 21:32:25;;;;;;;8.67;5.23;;;;;;;0.97;83.68;98624.33;491076;1147;104639;-41
2020/12/25 21:42:30;;;;;;;13.90;7.90;;;;;;;0.95;83.54;98626.27;490431;1147;104581;-40
2020/12/25 21:52:33;;;;;;;10.83;6.37;;;;;;;0.87;83.56;98620.11;490679;1147;104491;-40
2020/12/25 22:02:38;;;;;;;12.23;6.53;;;;;;;0.91;83.64;98626.59;490278;1147;104562;-41
2020/12/25 22:12:42;;;;;;;15.70;8.77;;;;;;;0.89;83.81;98625.15;490453;1147;105360;-42
2020/12/25 22:22:47;;;;;;;13.00;8.03;;;;;;;0.90;83.87;98637.19;491368;1147;104496;-41
2020/12/25 22:32:52;;;;;;;19.05;10.45;;;;;;;0.97;84.08;98625.14;490349;1147;104852;-42
2020/12/25 22:42:57;;;;;;;27.80;15.10;;;;;;;1.05;83.53;98634.70;491565;1147;104828;-40
2020/12/25 22:53:02;;;;;;;15.30;8.70;;;;;;;1.06;84.01;98631.93;490124;1147;104444;-41
2020/12/25 23:03:07;;;;;;;21.37;11.63;;;;;;;1.22;83.78;98633.66;489744;1148;104826;-40
2020/12/25 23:13:12;;;;;;;14.40;8.23;;;;;;;1.05;83.85;98645.12;489654;1148;104857;-41
2020/12/25 23:23:17;;;;;;;9.93;5.43;;;;;;;0.93;83.51;98637.66;489783;1148;104524;-40
2020/12/25 23:33:21;;;;;;;10.77;6.37;;;;;;;0.83;83.38;98649.25;489808;1148;104556;-40
2020/12/25 23:43:27;;;;;;;13.75;6.50;;;;;;;0.68;83.36;98661.31;489945;1148;104585;-41
2020/12/25 23:53:31;;;;;;;10.23;6.07;;;;;;;0.65;84.00;98659.86;491040;1147;104529;-41
